createdAt,value
2023-01-19T00:00:21.012Z,85.10
2023-01-19T00:02:48.036Z,85.20
2023-01-19T00:05:14.928Z,85.60
2023-01-19T00:07:41.951Z,86.20
2023-01-19T00:10:10.098Z,86.60
2023-01-19T00:12:36.858Z,86.50
2023-01-19T00:15:03.804Z,86.30
2023-01-19T00:17:30.424Z,86.70
2023-01-19T00:19:57.018Z,87.10
2023-01-19T00:22:23.730Z,87.70
2023-01-19T00:24:50.635Z,87.60
2023-01-19T00:27:17.251Z,87.30
2023-01-19T00:29:43.874Z,87.30
2023-01-19T00:32:10.476Z,87.30
2023-01-19T00:34:39.468Z,87.30
2023-01-19T00:37:09.857Z,87.20
2023-01-19T00:39:36.567Z,86.90
2023-01-19T00:42:22.081Z,87.00
2023-01-19T00:44:48.725Z,86.80
2023-01-19T00:47:15.348Z,86.90
2023-01-19T00:49:41.972Z,87.10
2023-01-19T00:52:08.632Z,87.50
2023-01-19T00:54:35.296Z,87.60
2023-01-19T00:57:03.352Z,87.90
2023-01-19T00:59:30.041Z,87.80
2023-01-19T01:01:56.716Z,87.80
2023-01-19T01:04:23.535Z,87.80
2023-01-19T01:06:50.131Z,87.90
2023-01-19T01:09:16.861Z,87.50
2023-01-19T01:11:43.557Z,87.70
2023-01-19T01:14:11.631Z,87.40
2023-01-19T01:16:38.470Z,87.20
2023-01-19T01:19:05.107Z,86.90
2023-01-19T01:21:31.938Z,86.70
2023-01-19T01:23:58.594Z,86.50
2023-01-19T01:26:27.066Z,86.40
2023-01-19T01:28:54.439Z,86.20
2023-01-19T01:31:21.072Z,86.30
2023-01-19T01:33:47.771Z,87.20
2023-01-19T01:36:14.386Z,87.20
2023-01-19T01:38:41.577Z,87.30
2023-01-19T01:41:08.486Z,87.20
2023-01-19T01:43:45.765Z,86.80
2023-01-19T01:46:15.297Z,86.60
2023-01-19T01:48:46.453Z,86.60
2023-01-19T01:51:26.109Z,86.70
2023-01-19T01:54:06.876Z,86.60
2023-01-19T01:56:39.571Z,86.60
2023-01-19T01:59:10.726Z,87.10
2023-01-19T02:01:56.094Z,87.50
2023-01-19T02:04:23.730Z,88.00
2023-01-19T02:07:09.213Z,88.20
2023-01-19T02:09:56.067Z,88.20
2023-01-19T02:12:42.459Z,88.40
2023-01-19T02:15:18.162Z,88.20
2023-01-19T02:17:44.982Z,87.90
2023-01-19T02:20:12.439Z,87.70
2023-01-19T02:23:03.110Z,87.40
2023-01-19T02:25:30.111Z,87.20
2023-01-19T02:27:57.050Z,87.20
2023-01-19T02:30:24.148Z,87.30
2023-01-19T02:32:50.916Z,87.40
2023-01-19T02:35:17.518Z,87.80
2023-01-19T02:37:44.949Z,88.20
2023-01-19T02:40:14.881Z,88.10
2023-01-19T02:42:49.685Z,88.40
2023-01-19T02:45:22.350Z,88.70
2023-01-19T02:47:51.704Z,88.80
2023-01-19T02:50:37.276Z,88.80
2023-01-19T02:53:12.731Z,88.90
2023-01-19T02:55:43.283Z,88.70
2023-01-19T02:58:23.110Z,88.70
2023-01-19T03:01:16.912Z,88.80
2023-01-19T03:03:51.158Z,88.60
2023-01-19T03:06:33.180Z,88.90
2023-01-19T03:09:11.171Z,89.00
2023-01-19T03:11:42.896Z,88.90
2023-01-19T03:14:15.731Z,88.80
2023-01-19T03:16:48.337Z,88.90
2023-01-19T03:19:28.565Z,88.70
2023-01-19T03:21:59.133Z,89.30
2023-01-19T03:24:30.777Z,89.40
2023-01-19T03:27:06.582Z,89.50
2023-01-19T03:29:34.926Z,89.60
2023-01-19T03:32:06.794Z,89.60
2023-01-19T03:34:34.697Z,89.80
2023-01-19T03:37:04.923Z,89.80
2023-01-19T03:39:31.960Z,90.00
2023-01-19T03:42:03.082Z,90.40
2023-01-19T03:44:32.210Z,90.60
2023-01-19T03:46:59.660Z,90.80
2023-01-19T03:49:26.720Z,91.10
2023-01-19T03:51:56.467Z,90.90
2023-01-19T03:54:23.389Z,91.20
2023-01-19T03:56:50.179Z,91.30
2023-01-19T03:59:17.576Z,91.20
2023-01-19T04:01:44.424Z,91.00
2023-01-19T04:04:11.275Z,91.50
2023-01-19T04:06:37.783Z,91.10
2023-01-19T04:09:04.575Z,91.10
2023-01-19T04:11:31.524Z,90.90
2023-01-19T04:13:58.242Z,91.00
2023-01-19T04:16:24.764Z,90.80
2023-01-19T04:18:52.558Z,90.90
2023-01-19T04:21:20.270Z,91.30
2023-01-19T04:23:47.060Z,91.10
2023-01-19T04:26:13.779Z,91.30
2023-01-19T04:28:40.412Z,91.30
2023-01-19T04:31:07.716Z,91.20
2023-01-19T04:33:34.710Z,91.30
2023-01-19T04:36:01.994Z,91.20
2023-01-19T04:38:28.728Z,91.20
2023-01-19T04:40:55.655Z,91.30
2023-01-19T04:43:23.792Z,91.10
2023-01-19T04:45:51.298Z,91.10
2023-01-19T04:48:18.689Z,91.00
2023-01-19T04:50:45.542Z,91.30
2023-01-19T04:53:13.636Z,91.30
2023-01-19T04:55:40.494Z,91.20
2023-01-19T04:58:07.136Z,91.50
2023-01-19T05:00:33.726Z,91.70
2023-01-19T05:03:01.665Z,92.00
2023-01-19T05:05:28.676Z,91.80
2023-01-19T05:07:55.554Z,91.80
2023-01-19T05:10:22.289Z,91.90
2023-01-19T05:12:49.495Z,92.00
2023-01-19T05:15:16.247Z,92.10
2023-01-19T05:17:42.948Z,92.10
2023-01-19T05:20:10.472Z,92.00
2023-01-19T05:22:37.087Z,91.70
2023-01-19T05:25:03.934Z,91.50
2023-01-19T05:27:30.584Z,91.40
2023-01-19T05:29:57.196Z,91.60
2023-01-19T05:32:23.826Z,91.60
2023-01-19T05:34:50.358Z,91.50
2023-01-19T05:37:17.255Z,91.40
2023-01-19T05:39:43.815Z,91.40
2023-01-19T05:42:10.476Z,91.30
2023-01-19T05:44:37.048Z,91.20
2023-01-19T05:47:03.678Z,91.20
2023-01-19T05:49:30.420Z,91.50
2023-01-19T05:51:57.037Z,91.30
2023-01-19T05:54:23.773Z,91.00
2023-01-19T05:56:50.308Z,91.00
2023-01-19T05:59:23.798Z,90.60
2023-01-19T06:01:51.844Z,90.60
2023-01-19T06:04:19.912Z,90.80
2023-01-19T06:06:50.478Z,90.80
2023-01-19T06:09:17.737Z,90.80
2023-01-19T06:11:45.164Z,90.70
2023-01-19T06:14:12.282Z,90.90
2023-01-19T06:16:39.638Z,91.00
2023-01-19T06:19:06.394Z,91.10
2023-01-19T06:21:34.233Z,91.20
2023-01-19T06:24:01.163Z,91.70
2023-01-19T06:26:27.833Z,91.80
2023-01-19T06:28:54.385Z,91.70
2023-01-19T06:31:21.218Z,92.00
2023-01-19T06:33:47.919Z,92.20
2023-01-19T06:36:14.546Z,92.90
2023-01-19T06:38:41.211Z,92.20
2023-01-19T06:41:07.911Z,92.30
2023-01-19T06:43:34.466Z,92.20
2023-01-19T06:46:02.210Z,92.00
2023-01-19T06:48:29.240Z,92.00
2023-01-19T06:50:58.473Z,91.90
2023-01-19T06:53:27.699Z,91.80
2023-01-19T06:55:57.908Z,91.60
2023-01-19T06:58:25.153Z,91.50
2023-01-19T07:00:52.108Z,91.30
2023-01-19T07:03:21.986Z,91.30
2023-01-19T07:05:52.925Z,91.10
2023-01-19T07:08:19.574Z,90.90
2023-01-19T07:11:25.050Z,90.70
2023-01-19T07:13:37.465Z,90.90
2023-01-19T07:16:07.291Z,90.80
2023-01-19T07:18:34.377Z,90.70
2023-01-19T07:21:01.210Z,90.70
2023-01-19T07:23:30.251Z,90.70
2023-01-19T07:25:58.409Z,90.70
2023-01-19T07:28:25.167Z,90.60
2023-01-19T07:30:52.992Z,90.40
2023-01-19T07:33:19.684Z,90.60
2023-01-19T07:35:47.536Z,90.40
2023-01-19T07:38:14.417Z,90.30
2023-01-19T07:40:41.147Z,89.80
2023-01-19T07:43:07.788Z,89.80
2023-01-19T07:45:35.919Z,89.70
2023-01-19T07:48:02.572Z,89.60
2023-01-19T07:50:29.711Z,89.80
2023-01-19T07:52:56.749Z,89.70
2023-01-19T07:55:24.501Z,89.90
2023-01-19T07:57:51.777Z,89.90
2023-01-19T08:00:21.799Z,89.70
2023-01-19T08:02:51.106Z,89.70
2023-01-19T08:05:19.049Z,89.40
2023-01-19T08:07:46.330Z,89.60
2023-01-19T08:10:14.922Z,89.50
2023-01-19T08:12:42.419Z,88.80
2023-01-19T08:15:10.760Z,88.80
2023-01-19T08:17:37.676Z,88.40
2023-01-19T08:20:05.010Z,87.10
2023-01-19T08:22:31.619Z,87.40
2023-01-19T08:24:58.156Z,86.70
2023-01-19T08:27:24.907Z,86.70
2023-01-19T08:29:51.564Z,86.80
2023-01-19T08:32:18.830Z,86.60
2023-01-19T08:34:45.467Z,86.60
2023-01-19T08:37:12.716Z,86.70
2023-01-19T08:39:39.320Z,86.20
2023-01-19T08:42:05.929Z,85.90
2023-01-19T08:44:32.486Z,85.80
2023-01-19T08:46:59.938Z,86.20
2023-01-19T08:49:26.620Z,86.30
2023-01-19T08:51:53.452Z,86.70
2023-01-19T08:54:21.649Z,86.30
2023-01-19T08:56:48.287Z,86.40
2023-01-19T08:59:14.814Z,86.10
2023-01-19T09:01:41.636Z,85.50
2023-01-19T09:04:08.662Z,86.30
2023-01-19T09:06:35.368Z,86.70
2023-01-19T09:09:02.130Z,87.20
2023-01-19T09:11:28.805Z,87.80
2023-01-19T09:13:55.366Z,87.90
2023-01-19T09:16:22.187Z,88.80
2023-01-19T09:18:48.931Z,89.70
2023-01-19T09:21:15.452Z,90.70
2023-01-19T09:23:42.291Z,91.50
2023-01-19T09:26:09.903Z,92.50
2023-01-19T09:28:37.582Z,93.70
2023-01-19T09:31:06.635Z,95.00
2023-01-19T09:33:33.867Z,96.10
2023-01-19T09:36:01.956Z,96.90
2023-01-19T09:38:38.517Z,97.60
2023-01-19T09:41:16.170Z,98.10
2023-01-19T09:43:51.418Z,98.30
2023-01-19T09:46:29.928Z,98.40
2023-01-19T09:48:59.628Z,98.40
2023-01-19T09:51:38.971Z,98.30
2023-01-19T09:54:18.788Z,98.30
2023-01-19T09:56:47.509Z,98.20
2023-01-19T09:59:25.844Z,98.20
2023-01-19T10:02:20.248Z,99.10
2023-01-19T10:05:06.209Z,98.20
2023-01-19T10:08:14.833Z,98.00
2023-01-19T10:10:45.868Z,98.00
2023-01-19T10:13:21.597Z,97.90
2023-01-19T10:15:54.016Z,97.70
2023-01-19T10:18:30.900Z,97.60
2023-01-19T10:21:22.606Z,97.70
2023-01-19T10:23:52.195Z,97.60
2023-01-19T10:26:24.415Z,97.20
2023-01-19T10:28:55.433Z,97.20
2023-01-19T10:31:24.192Z,97.50
2023-01-19T10:33:52.247Z,97.70
2023-01-19T10:36:22.080Z,97.90
2023-01-19T10:38:49.142Z,98.20
2023-01-19T10:41:25.995Z,98.50
2023-01-19T10:44:02.249Z,99.00
2023-01-19T10:46:38.559Z,99.40
2023-01-19T10:49:06.387Z,99.70
2023-01-19T10:51:33.309Z,99.90
2023-01-19T10:54:04.177Z,99.90
2023-01-19T10:56:34.842Z,99.90
2023-01-19T10:59:03.997Z,99.90
2023-01-19T11:01:31.109Z,99.90
2023-01-19T11:04:05.300Z,99.90
2023-01-19T11:06:33.770Z,99.90
2023-01-19T11:09:18.402Z,99.90
2023-01-19T11:11:52.947Z,99.80
2023-01-19T11:14:24.667Z,99.90
2023-01-19T11:16:56.750Z,99.90
2023-01-19T11:19:29.857Z,99.60
2023-01-19T11:22:24.720Z,99.60
2023-01-19T11:24:52.082Z,98.80
2023-01-19T11:27:20.716Z,98.80
2023-01-19T11:29:58.834Z,98.50
2023-01-19T11:32:27.880Z,98.30
2023-01-19T11:34:54.565Z,98.20
2023-01-19T11:37:21.131Z,97.40
2023-01-19T11:39:47.738Z,97.00
2023-01-19T11:42:14.892Z,97.00
2023-01-19T11:45:06.679Z,97.30
2023-01-19T11:47:46.997Z,97.10
2023-01-19T11:50:33.080Z,97.10
2023-01-19T11:53:09.177Z,96.40
2023-01-19T11:55:49.784Z,95.00
2023-01-19T11:58:18.582Z,94.70
2023-01-19T12:01:02.687Z,94.80
2023-01-19T12:03:43.704Z,94.30
2023-01-19T12:06:15.344Z,94.00
2023-01-19T12:08:49.519Z,93.50
2023-01-19T12:11:32.129Z,93.60
2023-01-19T12:14:00.309Z,93.70
2023-01-19T12:16:30.158Z,94.30
2023-01-19T12:19:01.317Z,94.70
2023-01-19T12:21:28.408Z,95.00
2023-01-19T12:24:10.247Z,95.30
2023-01-19T12:26:37.543Z,95.70
2023-01-19T12:29:13.365Z,95.60
2023-01-19T12:31:42.713Z,95.90
2023-01-19T12:34:31.420Z,96.70
2023-01-19T12:37:03.901Z,97.40
2023-01-19T12:39:32.137Z,97.80
2023-01-19T12:42:15.090Z,98.60
2023-01-19T12:44:43.481Z,98.90
2023-01-19T12:47:16.023Z,99.10
2023-01-19T12:50:06.440Z,99.90
2023-01-19T12:52:51.159Z,99.20
2023-01-19T12:55:23.204Z,99.30
2023-01-19T12:57:55.965Z,99.40
2023-01-19T13:00:22.529Z,99.70
2023-01-19T13:02:50.201Z,99.80
2023-01-19T13:05:33.219Z,99.90
2023-01-19T13:08:05.454Z,99.90
2023-01-19T13:11:00.040Z,99.90
2023-01-19T13:13:31.853Z,99.90
2023-01-19T13:16:18.503Z,99.90
2023-01-19T13:18:59.050Z,99.90
2023-01-19T13:21:41.531Z,99.90
2023-01-19T13:24:23.797Z,99.90
2023-01-19T13:26:50.391Z,99.90
2023-01-19T13:29:22.606Z,99.90
2023-01-19T13:31:49.595Z,99.90
2023-01-19T13:34:22.481Z,99.90
2023-01-19T13:36:55.024Z,99.90
2023-01-19T13:39:37.754Z,99.90
2023-01-19T13:42:14.711Z,99.90
2023-01-19T13:44:51.264Z,99.90
2023-01-19T13:47:41.560Z,99.90
2023-01-19T13:50:20.636Z,99.90
2023-01-19T13:52:48.910Z,99.90
2023-01-19T13:55:16.746Z,99.90
2023-01-19T13:57:45.396Z,99.90
2023-01-19T14:00:12.312Z,99.90
2023-01-19T14:02:59.004Z,99.90
2023-01-19T14:05:38.367Z,99.90
2023-01-19T14:08:13.145Z,99.90
2023-01-19T14:10:45.927Z,99.90
2023-01-19T14:13:18.842Z,99.90
2023-01-19T14:15:46.461Z,99.90
2023-01-19T14:18:19.308Z,99.90
2023-01-19T14:20:53.584Z,99.90
2023-01-19T14:23:59.208Z,99.90
2023-01-19T14:26:38.305Z,99.90
2023-01-19T14:29:18.613Z,99.90
2023-01-19T14:31:47.638Z,99.90
2023-01-19T14:34:41.559Z,99.90
2023-01-19T14:37:19.731Z,99.90
2023-01-19T14:39:49.397Z,99.90
2023-01-19T14:42:21.995Z,99.90
2023-01-19T14:44:53.982Z,99.90
2023-01-19T14:47:32.571Z,99.90
2023-01-19T14:50:07.365Z,99.90
2023-01-19T14:52:40.760Z,99.90
2023-01-19T14:55:20.849Z,99.90
2023-01-19T14:57:48.115Z,99.90
2023-01-19T15:00:19.622Z,99.70
2023-01-19T15:02:47.079Z,99.80
2023-01-19T15:05:14.287Z,99.90
2023-01-19T15:07:43.882Z,99.30
2023-01-19T15:10:21.257Z,99.30
2023-01-19T15:12:50.337Z,99.30
2023-01-19T15:15:32.253Z,99.20
2023-01-19T15:18:01.339Z,99.20
2023-01-19T15:20:28.372Z,98.90
2023-01-19T15:22:54.978Z,98.90
2023-01-19T15:25:26.109Z,98.80
2023-01-19T15:27:57.179Z,99.60
2023-01-19T15:30:30.996Z,98.80
2023-01-19T15:32:58.880Z,98.90
2023-01-19T15:35:28.490Z,99.00
2023-01-19T15:37:55.157Z,99.00
2023-01-19T15:40:23.185Z,99.20
2023-01-19T15:42:50.628Z,99.30
2023-01-19T15:45:32.729Z,99.40
2023-01-19T15:48:01.547Z,99.60
2023-01-19T15:50:28.186Z,99.80
2023-01-19T15:52:54.863Z,99.90
2023-01-19T15:55:21.651Z,99.90
2023-01-19T15:57:48.781Z,99.90
2023-01-19T16:00:16.150Z,99.90
2023-01-19T16:02:42.849Z,99.90
2023-01-19T16:05:10.212Z,99.90
2023-01-19T16:07:37.119Z,99.90
2023-01-19T16:10:06.216Z,99.90
2023-01-19T16:12:32.813Z,99.90
2023-01-19T16:14:59.399Z,99.90
2023-01-19T16:17:26.033Z,99.90
2023-01-19T16:19:52.655Z,99.90
2023-01-19T16:22:19.268Z,99.90
2023-01-19T16:24:45.793Z,99.90
2023-01-19T16:27:12.566Z,99.90
2023-01-19T16:29:39.226Z,99.90
2023-01-19T16:32:06.046Z,99.90
2023-01-19T16:34:33.071Z,99.90
2023-01-19T16:36:59.797Z,99.90
2023-01-19T16:39:26.504Z,99.90
2023-01-19T16:41:53.103Z,99.90
2023-01-19T16:44:19.760Z,99.90
2023-01-19T16:46:49.547Z,99.90
2023-01-19T16:49:21.225Z,99.90
2023-01-19T16:51:48.965Z,99.90
2023-01-19T16:54:17.876Z,99.90
2023-01-19T16:56:44.640Z,99.90
2023-01-19T16:59:13.450Z,99.90
2023-01-19T17:01:43.134Z,99.90
2023-01-19T17:04:10.014Z,99.90
2023-01-19T17:06:36.735Z,99.90
2023-01-19T17:09:04.184Z,99.90
2023-01-19T17:11:32.337Z,99.90
2023-01-19T17:14:00.891Z,99.90
2023-01-19T17:16:29.226Z,99.90
2023-01-19T17:19:00.813Z,99.90
2023-01-19T17:21:27.928Z,99.90
2023-01-19T17:23:55.573Z,99.90
2023-01-19T17:26:25.109Z,99.90
2023-01-19T17:28:52.296Z,99.90
2023-01-19T17:31:21.606Z,99.90
2023-01-19T17:33:49.673Z,99.90
2023-01-19T17:36:22.130Z,99.90
2023-01-19T17:38:49.642Z,99.90
2023-01-19T17:41:21.760Z,99.90
2023-01-19T17:43:50.267Z,99.90
2023-01-19T17:46:17.494Z,99.90
2023-01-19T17:48:44.193Z,99.90
2023-01-19T17:51:12.934Z,99.90
2023-01-19T17:53:41.704Z,99.90
2023-01-19T17:56:11.184Z,99.90
2023-01-19T17:58:38.414Z,99.90
2023-01-19T18:01:20.068Z,99.90
2023-01-19T18:03:46.722Z,99.90
2023-01-19T18:06:13.816Z,99.90
2023-01-19T18:08:47.115Z,99.90
2023-01-19T18:11:15.214Z,99.90
2023-01-19T18:13:44.847Z,99.90
2023-01-19T18:16:14.943Z,99.90
2023-01-19T18:18:41.989Z,99.90
2023-01-19T18:21:12.622Z,99.90
2023-01-19T18:23:39.504Z,99.90
2023-01-19T18:26:12.170Z,99.90
2023-01-19T18:28:39.215Z,99.90
2023-01-19T18:31:15.040Z,99.90
2023-01-19T18:33:42.079Z,99.90
2023-01-19T18:36:09.429Z,99.90
2023-01-19T18:38:36.739Z,99.90
2023-01-19T18:41:05.813Z,99.90
2023-01-19T18:43:32.726Z,99.90
2023-01-19T18:45:59.515Z,99.90
2023-01-19T18:48:26.268Z,99.90
2023-01-19T18:50:53.581Z,99.90
2023-01-19T18:53:20.844Z,99.90
2023-01-19T18:55:57.269Z,99.90
2023-01-19T18:58:28.404Z,99.90
2023-01-19T19:00:57.278Z,99.90
2023-01-19T19:03:24.068Z,99.90
2023-01-19T19:05:50.863Z,99.90
2023-01-19T19:08:17.580Z,99.90
2023-01-19T19:10:44.539Z,99.90
2023-01-19T19:13:15.923Z,99.90
2023-01-19T19:15:44.275Z,99.90
2023-01-19T19:18:13.515Z,99.90
2023-01-19T19:20:41.881Z,99.90
2023-01-19T19:23:08.605Z,99.90
2023-01-19T19:25:37.894Z,99.90
2023-01-19T19:28:04.722Z,99.90
2023-01-19T19:30:34.195Z,99.90
2023-01-19T19:33:01.093Z,99.90
2023-01-19T19:35:27.913Z,99.90
2023-01-19T19:37:58.000Z,99.90
2023-01-19T19:40:26.536Z,99.90
2023-01-19T19:42:53.397Z,99.90
2023-01-19T19:45:20.056Z,99.90
2023-01-19T19:47:46.799Z,99.90
2023-01-19T19:50:14.110Z,99.90
2023-01-19T19:52:42.151Z,99.90
2023-01-19T19:55:10.608Z,99.90
2023-01-19T19:57:37.540Z,99.90
2023-01-19T20:00:05.332Z,99.90
2023-01-19T20:02:32.409Z,99.90
2023-01-19T20:04:59.132Z,99.90
2023-01-19T20:07:28.211Z,99.90
2023-01-19T20:09:55.125Z,99.90
2023-01-19T20:12:21.925Z,99.90
2023-01-19T20:14:48.666Z,99.90
2023-01-19T20:17:15.393Z,99.90
2023-01-19T20:19:43.721Z,99.90
2023-01-19T20:22:10.456Z,99.90
2023-01-19T20:24:37.149Z,99.90
2023-01-19T20:27:04.067Z,99.90
2023-01-19T20:29:30.763Z,99.90
2023-01-19T20:31:57.691Z,99.90
2023-01-19T20:34:32.051Z,99.90
2023-01-19T20:37:00.576Z,99.90
2023-01-19T20:39:28.952Z,99.90
2023-01-19T20:41:55.740Z,99.90
2023-01-19T20:44:24.634Z,99.90
2023-01-19T20:46:52.900Z,99.90
2023-01-19T20:49:20.346Z,99.90
2023-01-19T20:51:47.827Z,99.90
2023-01-19T20:54:17.080Z,99.90
2023-01-19T20:56:43.907Z,99.90
2023-01-19T20:59:11.382Z,99.90
2023-01-19T21:01:39.281Z,99.90
2023-01-19T21:04:06.667Z,99.90
2023-01-19T21:06:33.739Z,99.90
2023-01-19T21:09:00.492Z,99.90
2023-01-19T21:11:27.597Z,99.90
2023-01-19T21:13:57.360Z,99.90
2023-01-19T21:16:26.363Z,99.90
2023-01-19T21:18:53.657Z,99.90
2023-01-19T21:21:29.778Z,99.90
2023-01-19T21:24:02.020Z,99.90
2023-01-19T21:26:33.707Z,99.90
2023-01-19T21:29:02.543Z,99.90
2023-01-19T21:31:29.882Z,99.90
2023-01-19T21:33:59.893Z,99.90
2023-01-19T21:36:27.012Z,99.90
2023-01-19T21:38:55.816Z,99.90
2023-01-19T21:41:22.596Z,99.90
2023-01-19T21:43:49.143Z,99.90
2023-01-19T21:46:31.999Z,99.90
2023-01-19T21:49:01.126Z,99.90
2023-01-19T21:51:33.544Z,99.90
2023-01-19T21:54:01.456Z,99.90
2023-01-19T21:56:29.477Z,99.90
2023-01-19T21:58:57.169Z,99.90
2023-01-19T22:01:24.373Z,99.90
2023-01-19T22:03:55.702Z,99.90
2023-01-19T22:06:22.850Z,99.90
2023-01-19T22:08:49.683Z,99.90
2023-01-19T22:11:18.812Z,99.90
2023-01-19T22:13:45.574Z,99.90
2023-01-19T22:16:17.139Z,99.90
2023-01-19T22:18:46.445Z,99.90
2023-01-19T22:21:16.248Z,99.90
2023-01-19T22:23:43.840Z,99.90
2023-01-19T22:26:11.442Z,99.90
2023-01-19T22:28:38.453Z,99.90
2023-01-19T22:31:07.219Z,99.90
2023-01-19T22:33:34.022Z,99.90
2023-01-19T22:36:14.298Z,99.90
2023-01-19T22:38:41.271Z,99.90
2023-01-19T22:41:16.282Z,99.90
2023-01-19T22:43:43.894Z,99.90
2023-01-19T22:46:11.061Z,99.90
2023-01-19T22:48:37.892Z,99.90
2023-01-19T22:51:04.574Z,99.90
2023-01-19T22:53:31.723Z,99.90
2023-01-19T22:55:58.342Z,99.90
2023-01-19T22:58:24.884Z,99.90
2023-01-19T23:00:51.612Z,99.90
2023-01-19T23:03:18.218Z,99.90
2023-01-19T23:05:44.766Z,99.90
2023-01-19T23:08:11.446Z,99.90
2023-01-19T23:10:38.970Z,99.90
2023-01-19T23:13:05.612Z,99.90
2023-01-19T23:15:32.727Z,99.90
2023-01-19T23:17:59.413Z,99.90
2023-01-19T23:20:25.937Z,99.90
2023-01-19T23:22:52.543Z,99.90
2023-01-19T23:25:19.092Z,99.90
2023-01-19T23:27:45.726Z,99.90
2023-01-19T23:30:12.419Z,99.90
2023-01-19T23:32:39.061Z,99.90
2023-01-19T23:35:05.794Z,99.90
2023-01-19T23:37:32.416Z,99.90
2023-01-19T23:39:58.954Z,99.90
2023-01-19T23:42:25.650Z,99.90
2023-01-19T23:44:52.408Z,99.90
2023-01-19T23:47:19.008Z,99.90
2023-01-19T23:49:45.615Z,99.90
2023-01-19T23:52:12.205Z,99.90
2023-01-19T23:54:38.768Z,99.90
2023-01-19T23:57:05.374Z,99.90
2023-01-19T23:59:31.905Z,99.90
